sensor_id;sensor_type;location;lat;lon;timestamp;P1;durP1;ratioP1;P2;durP2;ratioP2
12476;SDS011;6303;51.504;6.300;2023-04-15T00:00:08;1.92;;;1.70;;
12476;SDS011;6303;51.504;6.300;2023-04-15T00:02:40;2.42;;;1.88;;
12476;SDS011;6303;51.504;6.300;2023-04-15T00:05:08;2.38;;;1.73;;
12476;SDS011;6303;51.504;6.300;2023-04-15T00:07:35;1.95;;;1.60;;
12476;SDS011;6303;51.504;6.300;2023-04-15T00:10:02;1.88;;;1.70;;
12476;SDS011;6303;51.504;6.300;2023-04-15T00:12:30;2.00;;;1.73;;
12476;SDS011;6303;51.504;6.300;2023-04-15T00:14:57;2.22;;;1.85;;
12476;SDS011;6303;51.504;6.300;2023-04-15T00:17:24;1.83;;;1.60;;
12476;SDS011;6303;51.504;6.300;2023-04-15T00:19:52;1.80;;;1.70;;
12476;SDS011;6303;51.504;6.300;2023-04-15T00:22:19;1.73;;;1.63;;
12476;SDS011;6303;51.504;6.300;2023-04-15T00:24:46;1.77;;;1.60;;
12476;SDS011;6303;51.504;6.300;2023-04-15T00:27:14;2.20;;;1.80;;
12476;SDS011;6303;51.504;6.300;2023-04-15T00:29:41;1.65;;;1.55;;
12476;SDS011;6303;51.504;6.300;2023-04-15T00:32:08;1.95;;;1.60;;
12476;SDS011;6303;51.504;6.300;2023-04-15T00:34:35;1.77;;;1.67;;
12476;SDS011;6303;51.504;6.300;2023-04-15T00:37:03;1.60;;;1.50;;
12476;SDS011;6303;51.504;6.300;2023-04-15T00:39:30;1.52;;;1.42;;
12476;SDS011;6303;51.504;6.300;2023-04-15T00:41:58;2.33;;;1.70;;
12476;SDS011;6303;51.504;6.300;2023-04-15T00:44:25;2.45;;;1.70;;
12476;SDS011;6303;51.504;6.300;2023-04-15T00:46:53;2.10;;;1.65;;
12476;SDS011;6303;51.504;6.300;2023-04-15T00:49:20;1.70;;;1.60;;
12476;SDS011;6303;51.504;6.300;2023-04-15T00:51:48;2.10;;;1.70;;
12476;SDS011;6303;51.504;6.300;2023-04-15T00:54:16;2.10;;;1.70;;
12476;SDS011;6303;51.504;6.300;2023-04-15T00:56:43;2.13;;;1.63;;
12476;SDS011;6303;51.504;6.300;2023-04-15T00:59:10;2.38;;;1.60;;
12476;SDS011;6303;51.504;6.300;2023-04-15T01:01:38;1.63;;;1.52;;
12476;SDS011;6303;51.504;6.300;2023-04-15T01:04:06;1.60;;;1.50;;
12476;SDS011;6303;51.504;6.300;2023-04-15T01:06:34;1.73;;;1.52;;
12476;SDS011;6303;51.504;6.300;2023-04-15T01:09:01;1.70;;;1.60;;
12476;SDS011;6303;51.504;6.300;2023-04-15T01:11:30;2.00;;;1.77;;
12476;SDS011;6303;51.504;6.300;2023-04-15T01:13:59;2.10;;;1.70;;
12476;SDS011;6303;51.504;6.300;2023-04-15T01:16:27;1.67;;;1.50;;
12476;SDS011;6303;51.504;6.300;2023-04-15T01:18:54;2.10;;;1.60;;
12476;SDS011;6303;51.504;6.300;2023-04-15T01:21:21;1.60;;;1.50;;
12476;SDS011;6303;51.504;6.300;2023-04-15T01:23:49;2.08;;;1.77;;
12476;SDS011;6303;51.504;6.300;2023-04-15T01:26:20;1.65;;;1.55;;
12476;SDS011;6303;51.504;6.300;2023-04-15T01:28:47;1.52;;;1.42;;
12476;SDS011;6303;51.504;6.300;2023-04-15T01:31:14;1.75;;;1.52;;
12476;SDS011;6303;51.504;6.300;2023-04-15T01:33:42;1.58;;;1.48;;
12476;SDS011;6303;51.504;6.300;2023-04-15T01:36:09;1.80;;;1.55;;
12476;SDS011;6303;51.504;6.300;2023-04-15T01:38:36;1.92;;;1.80;;
12476;SDS011;6303;51.504;6.300;2023-04-15T01:41:04;1.83;;;1.50;;
12476;SDS011;6303;51.504;6.300;2023-04-15T01:43:33;2.22;;;1.70;;
12476;SDS011;6303;51.504;6.300;2023-04-15T01:46:01;1.85;;;1.60;;
12476;SDS011;6303;51.504;6.300;2023-04-15T01:48:30;2.20;;;1.48;;
12476;SDS011;6303;51.504;6.300;2023-04-15T01:50:58;1.50;;;1.40;;
12476;SDS011;6303;51.504;6.300;2023-04-15T01:53:25;2.10;;;1.48;;
12476;SDS011;6303;51.504;6.300;2023-04-15T01:55:52;1.70;;;1.60;;
12476;SDS011;6303;51.504;6.300;2023-04-15T01:58:19;1.52;;;1.42;;
12476;SDS011;6303;51.504;6.300;2023-04-15T02:00:48;1.50;;;1.40;;
12476;SDS011;6303;51.504;6.300;2023-04-15T02:03:15;1.80;;;1.70;;
12476;SDS011;6303;51.504;6.300;2023-04-15T02:05:42;2.35;;;1.58;;
12476;SDS011;6303;51.504;6.300;2023-04-15T02:08:10;2.85;;;1.73;;
12476;SDS011;6303;51.504;6.300;2023-04-15T02:10:37;2.00;;;1.80;;
12476;SDS011;6303;51.504;6.300;2023-04-15T02:13:04;2.85;;;1.73;;
12476;SDS011;6303;51.504;6.300;2023-04-15T02:15:32;2.47;;;1.60;;
12476;SDS011;6303;51.504;6.300;2023-04-15T02:18:00;2.15;;;1.70;;
12476;SDS011;6303;51.504;6.300;2023-04-15T02:20:27;1.50;;;1.40;;
12476;SDS011;6303;51.504;6.300;2023-04-15T02:22:56;1.73;;;1.63;;
12476;SDS011;6303;51.504;6.300;2023-04-15T02:25:23;1.50;;;1.40;;
12476;SDS011;6303;51.504;6.300;2023-04-15T02:27:50;2.88;;;1.42;;
12476;SDS011;6303;51.504;6.300;2023-04-15T02:30:17;1.55;;;1.45;;
12476;SDS011;6303;51.504;6.300;2023-04-15T02:32:45;1.60;;;1.50;;
12476;SDS011;6303;51.504;6.300;2023-04-15T02:35:13;1.50;;;1.40;;
12476;SDS011;6303;51.504;6.300;2023-04-15T02:37:43;1.67;;;1.58;;
12476;SDS011;6303;51.504;6.300;2023-04-15T02:40:11;1.65;;;1.50;;
12476;SDS011;6303;51.504;6.300;2023-04-15T02:42:38;1.58;;;1.48;;
12476;SDS011;6303;51.504;6.300;2023-04-15T02:45:09;1.75;;;1.48;;
12476;SDS011;6303;51.504;6.300;2023-04-15T02:47:38;1.50;;;1.40;;
12476;SDS011;6303;51.504;6.300;2023-04-15T02:50:06;2.67;;;1.80;;
12476;SDS011;6303;51.504;6.300;2023-04-15T02:52:38;1.35;;;1.23;;
12476;SDS011;6303;51.504;6.300;2023-04-15T02:55:07;1.73;;;1.50;;
12476;SDS011;6303;51.504;6.300;2023-04-15T02:57:35;1.63;;;1.40;;
12476;SDS011;6303;51.504;6.300;2023-04-15T03:00:06;1.42;;;1.33;;
12476;SDS011;6303;51.504;6.300;2023-04-15T03:02:38;3.17;;;1.73;;
12476;SDS011;6303;51.504;6.300;2023-04-15T03:05:10;1.55;;;1.45;;
12476;SDS011;6303;51.504;6.300;2023-04-15T03:07:40;1.60;;;1.50;;
12476;SDS011;6303;51.504;6.300;2023-04-15T03:10:08;1.88;;;1.40;;
12476;SDS011;6303;51.504;6.300;2023-04-15T03:12:36;1.88;;;1.48;;
12476;SDS011;6303;51.504;6.300;2023-04-15T03:15:03;1.85;;;1.60;;
12476;SDS011;6303;51.504;6.300;2023-04-15T03:17:35;2.00;;;1.60;;
12476;SDS011;6303;51.504;6.300;2023-04-15T03:20:03;1.40;;;1.30;;
12476;SDS011;6303;51.504;6.300;2023-04-15T03:22:31;1.60;;;1.50;;
12476;SDS011;6303;51.504;6.300;2023-04-15T03:25:00;1.48;;;1.38;;
12476;SDS011;6303;51.504;6.300;2023-04-15T03:27:27;1.35;;;1.25;;
12476;SDS011;6303;51.504;6.300;2023-04-15T03:29:58;1.63;;;1.42;;
12476;SDS011;6303;51.504;6.300;2023-04-15T03:32:29;1.50;;;1.40;;
12476;SDS011;6303;51.504;6.300;2023-04-15T03:34:56;2.13;;;1.50;;
12476;SDS011;6303;51.504;6.300;2023-04-15T03:37:23;1.38;;;1.30;;
12476;SDS011;6303;51.504;6.300;2023-04-15T03:39:50;1.45;;;1.35;;
12476;SDS011;6303;51.504;6.300;2023-04-15T03:42:20;1.40;;;1.30;;
12476;SDS011;6303;51.504;6.300;2023-04-15T03:44:47;1.65;;;1.55;;
12476;SDS011;6303;51.504;6.300;2023-04-15T03:47:14;1.60;;;1.50;;
12476;SDS011;6303;51.504;6.300;2023-04-15T03:49:41;1.77;;;1.67;;
12476;SDS011;6303;51.504;6.300;2023-04-15T03:52:08;1.30;;;1.30;;
12476;SDS011;6303;51.504;6.300;2023-04-15T03:54:35;1.50;;;1.40;;
12476;SDS011;6303;51.504;6.300;2023-04-15T03:57:02;1.70;;;1.60;;
12476;SDS011;6303;51.504;6.300;2023-04-15T03:59:30;1.98;;;1.60;;
12476;SDS011;6303;51.504;6.300;2023-04-15T04:01:57;1.60;;;1.48;;
12476;SDS011;6303;51.504;6.300;2023-04-15T04:04:24;1.50;;;1.40;;
12476;SDS011;6303;51.504;6.300;2023-04-15T04:06:51;1.55;;;1.40;;
12476;SDS011;6303;51.504;6.300;2023-04-15T04:09:18;1.50;;;1.40;;
12476;SDS011;6303;51.504;6.300;2023-04-15T04:11:45;1.67;;;1.58;;
12476;SDS011;6303;51.504;6.300;2023-04-15T04:14:12;1.60;;;1.50;;
12476;SDS011;6303;51.504;6.300;2023-04-15T04:16:41;1.63;;;1.52;;
12476;SDS011;6303;51.504;6.300;2023-04-15T04:19:08;1.40;;;1.30;;
12476;SDS011;6303;51.504;6.300;2023-04-15T04:21:35;1.45;;;1.35;;
12476;SDS011;6303;51.504;6.300;2023-04-15T04:24:04;1.65;;;1.20;;
12476;SDS011;6303;51.504;6.300;2023-04-15T04:26:31;1.73;;;1.60;;
12476;SDS011;6303;51.504;6.300;2023-04-15T04:28:58;1.60;;;1.50;;
12476;SDS011;6303;51.504;6.300;2023-04-15T04:31:25;1.50;;;1.38;;
12476;SDS011;6303;51.504;6.300;2023-04-15T04:33:53;1.30;;;1.20;;
12476;SDS011;6303;51.504;6.300;2023-04-15T04:36:20;1.50;;;1.40;;
12476;SDS011;6303;51.504;6.300;2023-04-15T04:38:47;1.65;;;1.50;;
12476;SDS011;6303;51.504;6.300;2023-04-15T04:41:14;1.95;;;1.70;;
12476;SDS011;6303;51.504;6.300;2023-04-15T04:43:41;1.90;;;1.50;;
12476;SDS011;6303;51.504;6.300;2023-04-15T04:46:08;1.58;;;1.45;;
12476;SDS011;6303;51.504;6.300;2023-04-15T04:48:36;1.67;;;1.58;;
12476;SDS011;6303;51.504;6.300;2023-04-15T04:51:05;2.10;;;1.45;;
12476;SDS011;6303;51.504;6.300;2023-04-15T04:53:32;1.40;;;1.30;;
12476;SDS011;6303;51.504;6.300;2023-04-15T04:55:59;1.60;;;1.50;;
12476;SDS011;6303;51.504;6.300;2023-04-15T04:58:26;1.50;;;1.40;;
12476;SDS011;6303;51.504;6.300;2023-04-15T05:00:53;1.50;;;1.40;;
12476;SDS011;6303;51.504;6.300;2023-04-15T05:03:20;1.73;;;1.63;;
12476;SDS011;6303;51.504;6.300;2023-04-15T05:05:47;1.58;;;1.42;;
12476;SDS011;6303;51.504;6.300;2023-04-15T05:08:16;1.92;;;1.42;;
12476;SDS011;6303;51.504;6.300;2023-04-15T05:10:43;1.40;;;1.30;;
12476;SDS011;6303;51.504;6.300;2023-04-15T05:13:10;1.50;;;1.40;;
12476;SDS011;6303;51.504;6.300;2023-04-15T05:15:37;1.65;;;1.55;;
12476;SDS011;6303;51.504;6.300;2023-04-15T05:18:05;1.63;;;1.52;;
12476;SDS011;6303;51.504;6.300;2023-04-15T05:20:32;1.60;;;1.40;;
12476;SDS011;6303;51.504;6.300;2023-04-15T05:22:59;1.35;;;1.27;;
12476;SDS011;6303;51.504;6.300;2023-04-15T05:25:28;1.38;;;1.38;;
12476;SDS011;6303;51.504;6.300;2023-04-15T05:27:55;1.45;;;1.35;;
12476;SDS011;6303;51.504;6.300;2023-04-15T05:30:22;1.58;;;1.48;;
12476;SDS011;6303;51.504;6.300;2023-04-15T05:32:49;1.65;;;1.38;;
12476;SDS011;6303;51.504;6.300;2023-04-15T05:35:16;1.40;;;1.30;;
12476;SDS011;6303;51.504;6.300;2023-04-15T05:37:43;1.55;;;1.45;;
12476;SDS011;6303;51.504;6.300;2023-04-15T05:40:11;1.60;;;1.50;;
12476;SDS011;6303;51.504;6.300;2023-04-15T05:42:39;1.50;;;1.40;;
12476;SDS011;6303;51.504;6.300;2023-04-15T05:45:07;2.05;;;1.60;;
12476;SDS011;6303;51.504;6.300;2023-04-15T05:47:34;1.88;;;1.50;;
12476;SDS011;6303;51.504;6.300;2023-04-15T05:50:02;1.35;;;1.27;;
12476;SDS011;6303;51.504;6.300;2023-04-15T05:52:29;1.40;;;1.30;;
12476;SDS011;6303;51.504;6.300;2023-04-15T05:54:57;1.30;;;1.30;;
12476;SDS011;6303;51.504;6.300;2023-04-15T05:57:24;1.65;;;1.52;;
12476;SDS011;6303;51.504;6.300;2023-04-15T05:59:52;6.10;;;1.60;;
12476;SDS011;6303;51.504;6.300;2023-04-15T06:02:21;1.55;;;1.48;;
12476;SDS011;6303;51.504;6.300;2023-04-15T06:04:48;2.33;;;1.50;;
12476;SDS011;6303;51.504;6.300;2023-04-15T06:07:15;1.60;;;1.50;;
12476;SDS011;6303;51.504;6.300;2023-04-15T06:09:42;2.88;;;1.33;;
12476;SDS011;6303;51.504;6.300;2023-04-15T06:12:10;1.38;;;1.27;;
12476;SDS011;6303;51.504;6.300;2023-04-15T06:14:37;2.85;;;1.70;;
12476;SDS011;6303;51.504;6.300;2023-04-15T06:17:06;1.55;;;1.30;;
12476;SDS011;6303;51.504;6.300;2023-04-15T06:19:33;1.42;;;1.33;;
12476;SDS011;6303;51.504;6.300;2023-04-15T06:22:00;3.40;;;1.52;;
12476;SDS011;6303;51.504;6.300;2023-04-15T06:24:27;1.60;;;1.50;;
12476;SDS011;6303;51.504;6.300;2023-04-15T06:26:55;1.60;;;1.50;;
12476;SDS011;6303;51.504;6.300;2023-04-15T06:29:22;1.50;;;1.40;;
12476;SDS011;6303;51.504;6.300;2023-04-15T06:31:50;2.20;;;1.30;;
12476;SDS011;6303;51.504;6.300;2023-04-15T06:34:18;1.58;;;1.48;;
12476;SDS011;6303;51.504;6.300;2023-04-15T06:36:45;1.40;;;1.30;;
12476;SDS011;6303;51.504;6.300;2023-04-15T06:39:12;1.40;;;1.30;;
12476;SDS011;6303;51.504;6.300;2023-04-15T06:41:39;3.10;;;1.40;;
12476;SDS011;6303;51.504;6.300;2023-04-15T06:44:06;1.45;;;1.35;;
12476;SDS011;6303;51.504;6.300;2023-04-15T06:46:33;2.03;;;1.83;;
12476;SDS011;6303;51.504;6.300;2023-04-15T06:49:00;1.83;;;1.52;;
12476;SDS011;6303;51.504;6.300;2023-04-15T06:51:29;1.55;;;1.45;;
12476;SDS011;6303;51.504;6.300;2023-04-15T06:53:56;1.98;;;1.50;;
12476;SDS011;6303;51.504;6.300;2023-04-15T06:56:23;1.52;;;1.40;;
12476;SDS011;6303;51.504;6.300;2023-04-15T06:58:51;1.60;;;1.50;;
12476;SDS011;6303;51.504;6.300;2023-04-15T07:01:18;1.90;;;1.45;;
12476;SDS011;6303;51.504;6.300;2023-04-15T07:03:45;1.40;;;1.30;;
12476;SDS011;6303;51.504;6.300;2023-04-15T07:06:12;1.48;;;1.38;;
12476;SDS011;6303;51.504;6.300;2023-04-15T07:08:41;1.50;;;1.40;;
12476;SDS011;6303;51.504;6.300;2023-04-15T07:11:08;1.40;;;1.30;;
12476;SDS011;6303;51.504;6.300;2023-04-15T07:13:35;1.55;;;1.45;;
12476;SDS011;6303;51.504;6.300;2023-04-15T07:16:02;1.60;;;1.33;;
12476;SDS011;6303;51.504;6.300;2023-04-15T07:18:30;1.60;;;1.50;;
12476;SDS011;6303;51.504;6.300;2023-04-15T07:20:57;1.63;;;1.30;;
12476;SDS011;6303;51.504;6.300;2023-04-15T07:23:24;1.88;;;1.50;;
12476;SDS011;6303;51.504;6.300;2023-04-15T07:25:53;1.50;;;1.40;;
12476;SDS011;6303;51.504;6.300;2023-04-15T07:28:21;1.60;;;1.50;;
12476;SDS011;6303;51.504;6.300;2023-04-15T07:30:48;1.45;;;1.35;;
12476;SDS011;6303;51.504;6.300;2023-04-15T07:33:15;1.40;;;1.30;;
12476;SDS011;6303;51.504;6.300;2023-04-15T07:35:42;1.70;;;1.60;;
12476;SDS011;6303;51.504;6.300;2023-04-15T07:38:09;1.75;;;1.60;;
12476;SDS011;6303;51.504;6.300;2023-04-15T07:40:37;1.60;;;1.50;;
12476;SDS011;6303;51.504;6.300;2023-04-15T07:43:06;1.65;;;1.52;;
12476;SDS011;6303;51.504;6.300;2023-04-15T07:45:34;1.60;;;1.50;;
12476;SDS011;6303;51.504;6.300;2023-04-15T07:48:02;1.35;;;1.33;;
12476;SDS011;6303;51.504;6.300;2023-04-15T07:50:30;1.98;;;1.42;;
12476;SDS011;6303;51.504;6.300;2023-04-15T07:52:57;1.48;;;1.38;;
12476;SDS011;6303;51.504;6.300;2023-04-15T07:55:24;1.40;;;1.30;;
12476;SDS011;6303;51.504;6.300;2023-04-15T07:57:51;1.58;;;1.48;;
12476;SDS011;6303;51.504;6.300;2023-04-15T08:00:19;1.38;;;1.27;;
12476;SDS011;6303;51.504;6.300;2023-04-15T08:02:46;1.67;;;1.58;;
12476;SDS011;6303;51.504;6.300;2023-04-15T08:05:13;1.50;;;1.40;;
12476;SDS011;6303;51.504;6.300;2023-04-15T08:07:40;2.25;;;1.40;;
12476;SDS011;6303;51.504;6.300;2023-04-15T08:10:08;1.30;;;1.25;;
12476;SDS011;6303;51.504;6.300;2023-04-15T08:12:36;1.40;;;1.30;;
12476;SDS011;6303;51.504;6.300;2023-04-15T08:15:03;1.40;;;1.30;;
12476;SDS011;6303;51.504;6.300;2023-04-15T08:17:33;1.40;;;1.30;;
12476;SDS011;6303;51.504;6.300;2023-04-15T08:20:00;1.33;;;1.25;;
12476;SDS011;6303;51.504;6.300;2023-04-15T08:22:28;1.60;;;1.50;;
12476;SDS011;6303;51.504;6.300;2023-04-15T08:24:55;1.55;;;1.38;;
12476;SDS011;6303;51.504;6.300;2023-04-15T08:27:22;1.67;;;1.40;;
12476;SDS011;6303;51.504;6.300;2023-04-15T08:29:49;1.40;;;1.30;;
12476;SDS011;6303;51.504;6.300;2023-04-15T08:32:16;2.72;;;1.40;;
12476;SDS011;6303;51.504;6.300;2023-04-15T08:34:44;2.75;;;1.50;;
12476;SDS011;6303;51.504;6.300;2023-04-15T08:37:11;1.30;;;1.20;;
12476;SDS011;6303;51.504;6.300;2023-04-15T08:39:38;1.40;;;1.30;;
12476;SDS011;6303;51.504;6.300;2023-04-15T08:42:06;1.48;;;1.38;;
12476;SDS011;6303;51.504;6.300;2023-04-15T08:44:37;1.30;;;1.20;;
12476;SDS011;6303;51.504;6.300;2023-04-15T08:47:07;3.17;;;1.38;;
12476;SDS011;6303;51.504;6.300;2023-04-15T08:49:34;2.03;;;1.38;;
12476;SDS011;6303;51.504;6.300;2023-04-15T08:52:07;2.70;;;1.30;;
12476;SDS011;6303;51.504;6.300;2023-04-15T08:54:34;2.00;;;1.38;;
12476;SDS011;6303;51.504;6.300;2023-04-15T08:57:02;1.35;;;1.20;;
12476;SDS011;6303;51.504;6.300;2023-04-15T08:59:29;1.98;;;1.20;;
12476;SDS011;6303;51.504;6.300;2023-04-15T09:01:56;4.18;;;1.52;;
12476;SDS011;6303;51.504;6.300;2023-04-15T09:04:24;6.78;;;1.50;;
12476;SDS011;6303;51.504;6.300;2023-04-15T09:06:51;4.80;;;1.60;;
12476;SDS011;6303;51.504;6.300;2023-04-15T09:09:19;4.13;;;1.52;;
12476;SDS011;6303;51.504;6.300;2023-04-15T09:11:46;3.65;;;1.65;;
12476;SDS011;6303;51.504;6.300;2023-04-15T09:14:14;3.22;;;1.67;;
12476;SDS011;6303;51.504;6.300;2023-04-15T09:16:57;3.40;;;1.50;;
12476;SDS011;6303;51.504;6.300;2023-04-15T09:19:25;2.30;;;1.55;;
12476;SDS011;6303;51.504;6.300;2023-04-15T09:21:53;2.90;;;1.45;;
12476;SDS011;6303;51.504;6.300;2023-04-15T09:24:23;1.40;;;1.30;;
12476;SDS011;6303;51.504;6.300;2023-04-15T09:26:52;2.20;;;1.40;;
12476;SDS011;6303;51.504;6.300;2023-04-15T09:29:20;1.85;;;1.50;;
12476;SDS011;6303;51.504;6.300;2023-04-15T09:31:50;2.00;;;1.48;;
12476;SDS011;6303;51.504;6.300;2023-04-15T09:34:18;1.33;;;1.20;;
12476;SDS011;6303;51.504;6.300;2023-04-15T09:36:51;1.83;;;1.23;;
12476;SDS011;6303;51.504;6.300;2023-04-15T09:39:20;4.13;;;1.60;;
12476;SDS011;6303;51.504;6.300;2023-04-15T09:41:52;1.80;;;1.63;;
12476;SDS011;6303;51.504;6.300;2023-04-15T09:44:30;2.70;;;1.40;;
12476;SDS011;6303;51.504;6.300;2023-04-15T09:46:57;1.52;;;1.33;;
12476;SDS011;6303;51.504;6.300;2023-04-15T09:49:24;2.25;;;1.30;;
12476;SDS011;6303;51.504;6.300;2023-04-15T09:51:56;1.27;;;1.17;;
12476;SDS011;6303;51.504;6.300;2023-04-15T09:54:28;1.88;;;1.23;;
12476;SDS011;6303;51.504;6.300;2023-04-15T09:57:07;1.40;;;1.30;;
12476;SDS011;6303;51.504;6.300;2023-04-15T09:59:36;1.30;;;1.23;;
12476;SDS011;6303;51.504;6.300;2023-04-15T10:02:03;1.23;;;1.10;;
12476;SDS011;6303;51.504;6.300;2023-04-15T10:04:32;1.17;;;1.15;;
12476;SDS011;6303;51.504;6.300;2023-04-15T10:07:02;2.25;;;1.10;;
12476;SDS011;6303;51.504;6.300;2023-04-15T10:09:30;1.45;;;1.30;;
12476;SDS011;6303;51.504;6.300;2023-04-15T10:11:58;1.10;;;1.10;;
12476;SDS011;6303;51.504;6.300;2023-04-15T10:14:28;1.95;;;1.00;;
12476;SDS011;6303;51.504;6.300;2023-04-15T10:17:00;1.23;;;1.15;;
12476;SDS011;6303;51.504;6.300;2023-04-15T10:19:28;1.40;;;1.20;;
12476;SDS011;6303;51.504;6.300;2023-04-15T10:21:57;1.30;;;1.20;;
12476;SDS011;6303;51.504;6.300;2023-04-15T10:24:24;1.40;;;1.30;;
12476;SDS011;6303;51.504;6.300;2023-04-15T10:26:52;1.20;;;1.20;;
12476;SDS011;6303;51.504;6.300;2023-04-15T10:29:22;1.20;;;1.10;;
12476;SDS011;6303;51.504;6.300;2023-04-15T10:31:52;1.20;;;1.20;;
12476;SDS011;6303;51.504;6.300;2023-04-15T10:34:21;1.00;;;1.00;;
12476;SDS011;6303;51.504;6.300;2023-04-15T10:36:49;1.20;;;1.10;;
12476;SDS011;6303;51.504;6.300;2023-04-15T10:42:09;1.00;;;1.00;;
12476;SDS011;6303;51.504;6.300;2023-04-15T10:44:37;1.40;;;1.30;;
12476;SDS011;6303;51.504;6.300;2023-04-15T10:47:08;1.10;;;1.00;;
12476;SDS011;6303;51.504;6.300;2023-04-15T10:49:43;1.00;;;1.00;;
12476;SDS011;6303;51.504;6.300;2023-04-15T10:52:12;1.20;;;1.10;;
12476;SDS011;6303;51.504;6.300;2023-04-15T10:54:41;1.02;;;1.02;;
12476;SDS011;6303;51.504;6.300;2023-04-15T10:57:13;1.13;;;1.02;;
12476;SDS011;6303;51.504;6.300;2023-04-15T11:00:01;1.23;;;1.17;;
12476;SDS011;6303;51.504;6.300;2023-04-15T11:02:43;1.05;;;1.05;;
12476;SDS011;6303;51.504;6.300;2023-04-15T11:05:12;1.00;;;1.00;;
12476;SDS011;6303;51.504;6.300;2023-04-15T11:07:40;1.00;;;1.00;;
12476;SDS011;6303;51.504;6.300;2023-04-15T11:13:21;0.90;;;0.90;;
12476;SDS011;6303;51.504;6.300;2023-04-15T11:15:57;1.00;;;1.00;;
12476;SDS011;6303;51.504;6.300;2023-04-15T11:18:28;1.02;;;1.02;;
12476;SDS011;6303;51.504;6.300;2023-04-15T11:20:58;0.98;;;0.98;;
12476;SDS011;6303;51.504;6.300;2023-04-15T11:23:31;0.80;;;0.80;;
12476;SDS011;6303;51.504;6.300;2023-04-15T11:26:01;0.88;;;0.88;;
12476;SDS011;6303;51.504;6.300;2023-04-15T11:28:33;0.90;;;0.90;;
12476;SDS011;6303;51.504;6.300;2023-04-15T11:31:04;0.98;;;0.98;;
12476;SDS011;6303;51.504;6.300;2023-04-15T11:33:34;1.00;;;1.00;;
12476;SDS011;6303;51.504;6.300;2023-04-15T11:36:01;0.95;;;0.95;;
12476;SDS011;6303;51.504;6.300;2023-04-15T11:38:28;1.55;;;1.00;;
12476;SDS011;6303;51.504;6.300;2023-04-15T11:40:56;1.05;;;1.02;;
12476;SDS011;6303;51.504;6.300;2023-04-15T11:43:23;0.90;;;0.90;;
12476;SDS011;6303;51.504;6.300;2023-04-15T11:45:51;0.90;;;0.90;;
12476;SDS011;6303;51.504;6.300;2023-04-15T11:48:21;0.95;;;0.95;;
12476;SDS011;6303;51.504;6.300;2023-04-15T11:50:53;0.82;;;0.82;;
12476;SDS011;6303;51.504;6.300;2023-04-15T11:53:21;0.90;;;0.90;;
12476;SDS011;6303;51.504;6.300;2023-04-15T11:55:50;1.10;;;1.00;;
12476;SDS011;6303;51.504;6.300;2023-04-15T11:58:18;0.90;;;0.90;;
12476;SDS011;6303;51.504;6.300;2023-04-15T12:00:48;0.95;;;0.93;;
12476;SDS011;6303;51.504;6.300;2023-04-15T12:03:17;1.00;;;1.00;;
12476;SDS011;6303;51.504;6.300;2023-04-15T12:06:09;0.73;;;0.73;;
12476;SDS011;6303;51.504;6.300;2023-04-15T12:08:48;0.80;;;0.80;;
12476;SDS011;6303;51.504;6.300;2023-04-15T12:11:29;1.05;;;1.05;;
12476;SDS011;6303;51.504;6.300;2023-04-15T12:14:02;1.25;;;1.08;;
12476;SDS011;6303;51.504;6.300;2023-04-15T12:16:32;1.10;;;1.00;;
12476;SDS011;6303;51.504;6.300;2023-04-15T12:19:04;0.90;;;0.88;;
12476;SDS011;6303;51.504;6.300;2023-04-15T12:21:35;0.90;;;0.90;;
12476;SDS011;6303;51.504;6.300;2023-04-15T12:24:04;0.90;;;0.90;;
12476;SDS011;6303;51.504;6.300;2023-04-15T12:26:34;0.90;;;0.90;;
12476;SDS011;6303;51.504;6.300;2023-04-15T12:29:03;1.25;;;0.90;;
12476;SDS011;6303;51.504;6.300;2023-04-15T12:31:32;2.17;;;1.08;;
12476;SDS011;6303;51.504;6.300;2023-04-15T12:34:00;0.90;;;0.90;;
12476;SDS011;6303;51.504;6.300;2023-04-15T12:36:27;1.05;;;0.98;;
12476;SDS011;6303;51.504;6.300;2023-04-15T12:38:58;0.90;;;0.90;;
12476;SDS011;6303;51.504;6.300;2023-04-15T12:41:25;2.50;;;0.80;;
12476;SDS011;6303;51.504;6.300;2023-04-15T12:43:52;0.80;;;0.80;;
12476;SDS011;6303;51.504;6.300;2023-04-15T12:46:19;1.45;;;0.90;;
12476;SDS011;6303;51.504;6.300;2023-04-15T12:48:46;0.90;;;0.90;;
12476;SDS011;6303;51.504;6.300;2023-04-15T12:51:13;0.85;;;0.85;;
12476;SDS011;6303;51.504;6.300;2023-04-15T12:53:40;0.90;;;0.90;;
12476;SDS011;6303;51.504;6.300;2023-04-15T12:56:09;0.93;;;0.93;;
12476;SDS011;6303;51.504;6.300;2023-04-15T12:58:36;0.90;;;0.90;;
12476;SDS011;6303;51.504;6.300;2023-04-15T13:01:03;0.85;;;0.85;;
12476;SDS011;6303;51.504;6.300;2023-04-15T13:03:30;0.90;;;0.90;;
12476;SDS011;6303;51.504;6.300;2023-04-15T13:05:57;1.10;;;1.00;;
12476;SDS011;6303;51.504;6.300;2023-04-15T13:08:26;0.88;;;0.88;;
12476;SDS011;6303;51.504;6.300;2023-04-15T13:10:53;1.75;;;1.00;;
12476;SDS011;6303;51.504;6.300;2023-04-15T13:13:22;0.90;;;0.90;;
12476;SDS011;6303;51.504;6.300;2023-04-15T13:15:49;1.88;;;1.00;;
12476;SDS011;6303;51.504;6.300;2023-04-15T13:18:16;1.85;;;1.00;;
12476;SDS011;6303;51.504;6.300;2023-04-15T13:20:43;1.40;;;1.00;;
12476;SDS011;6303;51.504;6.300;2023-04-15T13:23:10;0.82;;;0.82;;
12476;SDS011;6303;51.504;6.300;2023-04-15T13:25:37;0.90;;;0.90;;
12476;SDS011;6303;51.504;6.300;2023-04-15T13:28:04;1.10;;;1.00;;
12476;SDS011;6303;51.504;6.300;2023-04-15T13:30:32;1.95;;;1.02;;
12476;SDS011;6303;51.504;6.300;2023-04-15T13:33:00;1.23;;;0.80;;
12476;SDS011;6303;51.504;6.300;2023-04-15T13:35:27;2.00;;;0.90;;
12476;SDS011;6303;51.504;6.300;2023-04-15T13:37:54;1.63;;;0.90;;
12476;SDS011;6303;51.504;6.300;2023-04-15T13:40:21;0.80;;;0.80;;
12476;SDS011;6303;51.504;6.300;2023-04-15T13:42:49;1.35;;;0.80;;
12476;SDS011;6303;51.504;6.300;2023-04-15T13:45:17;1.00;;;1.00;;
12476;SDS011;6303;51.504;6.300;2023-04-15T13:47:46;0.90;;;0.90;;
12476;SDS011;6303;51.504;6.300;2023-04-15T13:50:13;0.90;;;0.90;;
12476;SDS011;6303;51.504;6.300;2023-04-15T13:52:40;0.90;;;0.90;;
12476;SDS011;6303;51.504;6.300;2023-04-15T13:55:08;0.70;;;0.70;;
12476;SDS011;6303;51.504;6.300;2023-04-15T13:57:35;0.82;;;0.82;;
12476;SDS011;6303;51.504;6.300;2023-04-15T14:00:02;1.00;;;0.90;;
12476;SDS011;6303;51.504;6.300;2023-04-15T14:02:31;0.80;;;0.80;;
12476;SDS011;6303;51.504;6.300;2023-04-15T14:05:00;0.85;;;0.85;;
12476;SDS011;6303;51.504;6.300;2023-04-15T14:07:27;1.20;;;0.80;;
12476;SDS011;6303;51.504;6.300;2023-04-15T14:09:55;0.95;;;0.93;;
12476;SDS011;6303;51.504;6.300;2023-04-15T14:12:22;1.25;;;1.00;;
12476;SDS011;6303;51.504;6.300;2023-04-15T14:14:49;1.58;;;0.85;;
12476;SDS011;6303;51.504;6.300;2023-04-15T14:17:16;2.38;;;1.17;;
12476;SDS011;6303;51.504;6.300;2023-04-15T14:19:43;1.15;;;0.82;;
12476;SDS011;6303;51.504;6.300;2023-04-15T14:22:11;1.23;;;0.90;;
12476;SDS011;6303;51.504;6.300;2023-04-15T14:24:38;1.10;;;0.90;;
12476;SDS011;6303;51.504;6.300;2023-04-15T14:27:05;0.93;;;0.93;;
12476;SDS011;6303;51.504;6.300;2023-04-15T14:29:35;0.88;;;0.88;;
12476;SDS011;6303;51.504;6.300;2023-04-15T14:32:02;0.95;;;0.95;;
12476;SDS011;6303;51.504;6.300;2023-04-15T14:34:29;0.90;;;0.90;;
12476;SDS011;6303;51.504;6.300;2023-04-15T14:36:56;1.00;;;0.80;;
12476;SDS011;6303;51.504;6.300;2023-04-15T14:39:25;1.50;;;0.85;;
12476;SDS011;6303;51.504;6.300;2023-04-15T14:41:52;1.60;;;0.90;;
12476;SDS011;6303;51.504;6.300;2023-04-15T14:44:19;1.05;;;0.73;;
12476;SDS011;6303;51.504;6.300;2023-04-15T14:46:46;0.82;;;0.82;;
12476;SDS011;6303;51.504;6.300;2023-04-15T14:49:14;0.90;;;0.90;;
12476;SDS011;6303;51.504;6.300;2023-04-15T14:51:41;1.20;;;0.90;;
12476;SDS011;6303;51.504;6.300;2023-04-15T14:54:08;0.85;;;0.80;;
12476;SDS011;6303;51.504;6.300;2023-04-15T14:56:36;0.70;;;0.70;;
12476;SDS011;6303;51.504;6.300;2023-04-15T14:59:03;0.80;;;0.80;;
12476;SDS011;6303;51.504;6.300;2023-04-15T15:01:30;0.88;;;0.88;;
12476;SDS011;6303;51.504;6.300;2023-04-15T15:03:58;0.80;;;0.80;;
12476;SDS011;6303;51.504;6.300;2023-04-15T15:06:26;0.85;;;0.85;;
12476;SDS011;6303;51.504;6.300;2023-04-15T15:08:53;0.80;;;0.80;;
12476;SDS011;6303;51.504;6.300;2023-04-15T15:11:20;1.13;;;0.90;;